ASN logo
Last updated: 18 November 2018
Status:Preliminary - official
Date:Monday 24 September 2018
Time:13:40
Type:Silhouette image of generic HDJT model; specific model in this crash may look slightly different
Honda HA-420 HondaJet
Operator:América Latina Tecnologia Agrícola (ALTA)
Registration: PR-TLZ
C/n / msn: 42000068
First flight: 2017
Crew:Fatalities: 0 / Occupants: 1
Passengers:Fatalities: 0 / Occupants: 2
Total:Fatalities: 0 / Occupants: 3
Aircraft damage: Substantial
Location:Foz do Iguaçu/Cataratas Airport, PR (IGU) (   Brazil)
Phase: Landing (LDG)
Nature:Executive
Departure airport:Curitiba-Afonso Pena International Airport, PR (CWB/SBCT), Brazil
Destination airport:Foz do Iguaçu/Cataratas Airport, PR (IGU/SBFI), Brazil
Narrative:
The Honda HA-420 HondaJet suffered a runway excursion after landing on runway 32 at Foz do Iguaçu/Cataratas Airport, Brazil. The aircraft fell in a ravine and sustained substantial damage. The three occupants were not injured.
Thunderstorms were present near the airport around the time of the accident. The Landing Distance Available (LDA) for runway 32 is 2095 m.

Classification:
Runway excursion

Sources:
» CENIPA

METAR Weather report:
16:00 UTC / 13:00 local time:
SBFI 241600Z 36012KT 9999 TS FEW030CB SCT040 BKN100 34/18 Q1010

17:12 UTC / 14:12 local time:
SBFI 241712Z 05008G49KT 1200 R14/P2000 R32/P2000 +TSGRRA SCT020 SCT030CB OVC070 25/21 Q1010


Photos

Add your photo of this accident or aircraft

Map
This map shows the airport of departure and the intended destination of the flight. The line between the airports does not display the exact flight path.
Distance from Curitiba-Afonso Pena International Airport, PR to Foz do Iguaçu/Cataratas Airport, PR as the crow flies is 531 km (332 miles).
Accident location: Approximate; accuracy within a few kilometers.

This information is not presented as the Flight Safety Foundation or the Aviation Safety Network’s opinion as to the cause of the accident. It is preliminary and is based on the facts as they are known at this time.
languages: languages

Share